DIREN LOWI-LIRA
Flight info
| Callsign | DIREN |
|---|---|
| Flight time | 1h 14m |
| Altitude | 39000 |
| Route | BRENO M726 NAXAV/N0333F390 DCT DIPVO DCT NIKMA DCT IPGOR DCT GITOD |
| Aircraft | E50P/L-SBDFGRWY/LB2 |
Departure
| Time | 2026-05-04 12:49 |
|---|---|
| Airport | Innsbruck Airport (LOWI) |
Arrival
| Time | 2026-05-04 14:03 |
|---|---|
| Airport | Ciampino–G. B. Pastine International Airport (LIRA) |
| Time | Latitude | Longitude | Altitude | Speed | Heading |
|---|---|---|---|---|---|
| 2026-05-04 12:29 | 47.25871 | 11.35368 | 1897 ft | 0 kts | 261° |
| 2026-05-04 12:43 | 47.25870 | 11.35367 | 1902 ft | 1 kts | 261° |
| 2026-05-04 12:43 | 47.25873 | 11.35326 | 1902 ft | 7 kts | 310° |
| 2026-05-04 12:43 | 47.25897 | 11.35227 | 1902 ft | 14 kts | 261° |
| 2026-05-04 12:44 | 47.25897 | 11.35226 | 1902 ft | 14 kts | 261° |
| 2026-05-04 12:45 | 47.25894 | 11.35201 | 1902 ft | 15 kts | 258° |
| 2026-05-04 12:45 | 47.25873 | 11.35013 | 1902 ft | 22 kts | 261° |
| 2026-05-04 12:46 | 47.25846 | 11.34760 | 1902 ft | 27 kts | 261° |
| 2026-05-04 12:46 | 47.25816 | 11.34486 | 1902 ft | 27 kts | 262° |
| 2026-05-04 12:46 | 47.25787 | 11.34209 | 1902 ft | 28 kts | 261° |
| 2026-05-04 12:46 | 47.25786 | 11.33935 | 1899 ft | 28 kts | 293° |
| 2026-05-04 12:47 | 47.25898 | 11.33708 | 1904 ft | 27 kts | 306° |
| 2026-05-04 12:47 | 47.25922 | 11.33484 | 1892 ft | 23 kts | 261° |
| 2026-05-04 12:47 | 47.25874 | 11.33260 | 1901 ft | 23 kts | 231° |
| 2026-05-04 12:47 | 47.25834 | 11.33102 | 1897 ft | 15 kts | 274° |
| 2026-05-04 12:48 | 47.25881 | 11.33087 | 1895 ft | 7 kts | 88° |
| 2026-05-04 12:48 | 47.25900 | 11.33280 | 1897 ft | 47 kts | 81° |
| 2026-05-04 12:48 | 47.25986 | 11.34059 | 1915 ft | 102 kts | 83° |
| 2026-05-04 12:48 | 47.26110 | 11.35203 | 2157 ft | 123 kts | 83° |
| 2026-05-04 12:49 | 47.26237 | 11.36505 | 2679 ft | 135 kts | 85° |
| 2026-05-04 12:49 | 47.26372 | 11.37916 | 3372 ft | 142 kts | 85° |
| 2026-05-04 12:49 | 47.26526 | 11.39305 | 4187 ft | 136 kts | 86° |
| 2026-05-04 12:49 | 47.26685 | 11.40720 | 4742 ft | 147 kts | 86° |
| 2026-05-04 12:50 | 47.26870 | 11.42296 | 5124 ft | 165 kts | 83° |
| 2026-05-04 12:50 | 47.27076 | 11.43994 | 5678 ft | 170 kts | 88° |
| 2026-05-04 12:50 | 47.27388 | 11.45678 | 6300 ft | 176 kts | 73° |
| 2026-05-04 12:50 | 47.27870 | 11.47361 | 6872 ft | 181 kts | 69° |
| 2026-05-04 12:51 | 47.28351 | 11.49066 | 7475 ft | 182 kts | 75° |
| 2026-05-04 12:51 | 47.28827 | 11.50864 | 7949 ft | 192 kts | 71° |
| 2026-05-04 12:51 | 47.29355 | 11.52699 | 8519 ft | 195 kts | 72° |
| 2026-05-04 12:51 | 47.29883 | 11.54565 | 9098 ft | 199 kts | 71° |
| 2026-05-04 12:52 | 47.30421 | 11.56470 | 9616 ft | 205 kts | 70° |
| 2026-05-04 12:52 | 47.30971 | 11.58401 | 10187 ft | 205 kts | 71° |
| 2026-05-04 12:52 | 47.31526 | 11.60382 | 10684 ft | 210 kts | 73° |
| 2026-05-04 12:52 | 47.31673 | 11.62464 | 11149 ft | 203 kts | 109° |
| 2026-05-04 12:53 | 47.30979 | 11.64170 | 11688 ft | 191 kts | 142° |
| 2026-05-04 12:53 | 47.29871 | 11.65082 | 12182 ft | 184 kts | 171° |
| 2026-05-04 12:53 | 47.28626 | 11.65057 | 12716 ft | 178 kts | 198° |
| 2026-05-04 12:53 | 47.27565 | 11.64152 | 13175 ft | 181 kts | 224° |
| 2026-05-04 12:54 | 47.26945 | 11.62553 | 13730 ft | 183 kts | 250° |
| 2026-05-04 12:54 | 47.26628 | 11.60717 | 14181 ft | 191 kts | 251° |
| 2026-05-04 12:54 | 47.26249 | 11.58712 | 14269 ft | 216 kts | 253° |
| 2026-05-04 12:54 | 47.25873 | 11.56475 | 14422 ft | 230 kts | 253° |
| 2026-05-04 12:55 | 47.25481 | 11.54197 | 14846 ft | 230 kts | 252° |
| 2026-05-04 12:55 | 47.25075 | 11.51911 | 15224 ft | 232 kts | 252° |
| 2026-05-04 12:55 | 47.24666 | 11.49591 | 15605 ft | 235 kts | 252° |
| 2026-05-04 12:55 | 47.24250 | 11.47248 | 15973 ft | 238 kts | 252° |
| 2026-05-04 12:56 | 47.23663 | 11.44992 | 16421 ft | 236 kts | 238° |
| 2026-05-04 12:56 | 47.22712 | 11.43024 | 16875 ft | 235 kts | 226° |
| 2026-05-04 12:56 | 47.21479 | 11.41435 | 17291 ft | 237 kts | 213° |
| 2026-05-04 12:56 | 47.20019 | 11.40312 | 17789 ft | 239 kts | 202° |
| 2026-05-04 12:57 | 47.18395 | 11.39733 | 18250 ft | 241 kts | 189° |
| 2026-05-04 12:57 | 47.16737 | 11.39568 | 18607 ft | 246 kts | 185° |
| 2026-05-04 12:57 | 47.15010 | 11.39375 | 18945 ft | 250 kts | 187° |
| 2026-05-04 12:57 | 47.13292 | 11.39196 | 19486 ft | 247 kts | 186° |
| 2026-05-04 12:58 | 47.11551 | 11.39027 | 19792 ft | 252 kts | 185° |
| 2026-05-04 12:58 | 47.09786 | 11.38854 | 20167 ft | 257 kts | 186° |
| 2026-05-04 12:58 | 47.07987 | 11.38668 | 20563 ft | 259 kts | 185° |
| 2026-05-04 12:58 | 47.06192 | 11.38493 | 21130 ft | 256 kts | 186° |
| 2026-05-04 12:59 | 47.04410 | 11.38312 | 21601 ft | 257 kts | 186° |
| 2026-05-04 12:59 | 47.02624 | 11.38131 | 21935 ft | 264 kts | 186° |
| 2026-05-04 12:59 | 47.00787 | 11.37945 | 22422 ft | 264 kts | 187° |
| 2026-05-04 12:59 | 46.98953 | 11.37763 | 22928 ft | 265 kts | 187° |
| 2026-05-04 13:00 | 46.97103 | 11.37572 | 23314 ft | 268 kts | 186° |
| 2026-05-04 13:00 | 46.95225 | 11.37368 | 23740 ft | 272 kts | 186° |
| 2026-05-04 13:00 | 46.93324 | 11.37154 | 24081 ft | 274 kts | 187° |
| 2026-05-04 13:00 | 46.91431 | 11.36945 | 24542 ft | 274 kts | 186° |
| 2026-05-04 13:01 | 46.89507 | 11.36736 | 24910 ft | 277 kts | 187° |
| 2026-05-04 13:01 | 46.87600 | 11.36526 | 25325 ft | 280 kts | 186° |
| 2026-05-04 13:01 | 46.85627 | 11.36312 | 25755 ft | 281 kts | 187° |
| 2026-05-04 13:01 | 46.83705 | 11.36100 | 26188 ft | 281 kts | 186° |
| 2026-05-04 13:02 | 46.81741 | 11.35886 | 26623 ft | 284 kts | 187° |
| 2026-05-04 13:02 | 46.79759 | 11.35660 | 27066 ft | 286 kts | 187° |
| 2026-05-04 13:02 | 46.77764 | 11.35458 | 27523 ft | 288 kts | 187° |
| 2026-05-04 13:02 | 46.75755 | 11.35249 | 27932 ft | 291 kts | 186° |
| 2026-05-04 13:03 | 46.73723 | 11.35039 | 28332 ft | 293 kts | 187° |
| 2026-05-04 13:03 | 46.71680 | 11.34826 | 28764 ft | 295 kts | 186° |
| 2026-05-04 13:03 | 46.69619 | 11.34613 | 29113 ft | 298 kts | 186° |
| 2026-05-04 13:03 | 46.67547 | 11.34399 | 29468 ft | 299 kts | 186° |
| 2026-05-04 13:04 | 46.65471 | 11.34186 | 29838 ft | 300 kts | 187° |
| 2026-05-04 13:04 | 46.63383 | 11.33970 | 30121 ft | 303 kts | 186° |
| 2026-05-04 13:04 | 46.61273 | 11.33751 | 30424 ft | 303 kts | 186° |
| 2026-05-04 13:04 | 46.59162 | 11.33534 | 30695 ft | 305 kts | 186° |
| 2026-05-04 13:05 | 46.57037 | 11.33317 | 30973 ft | 307 kts | 186° |
| 2026-05-04 13:05 | 46.54912 | 11.33097 | 31299 ft | 305 kts | 186° |
| 2026-05-04 13:05 | 46.52795 | 11.32881 | 31623 ft | 305 kts | 186° |
| 2026-05-04 13:05 | 46.50679 | 11.32663 | 31930 ft | 305 kts | 186° |
| 2026-05-04 13:06 | 46.48568 | 11.32447 | 32249 ft | 304 kts | 186° |
| 2026-05-04 13:06 | 46.46456 | 11.32352 | 32544 ft | 305 kts | 178° |
| 2026-05-04 13:06 | 46.44364 | 11.32883 | 32816 ft | 306 kts | 169° |
| 2026-05-04 13:06 | 46.42286 | 11.33584 | 33088 ft | 306 kts | 170° |
| 2026-05-04 13:07 | 46.40210 | 11.34245 | 33503 ft | 305 kts | 170° |
| 2026-05-04 13:07 | 46.38146 | 11.34920 | 33828 ft | 304 kts | 170° |
| 2026-05-04 13:07 | 46.36088 | 11.35603 | 34150 ft | 303 kts | 170° |
| 2026-05-04 13:07 | 46.34035 | 11.36274 | 34406 ft | 303 kts | 170° |
| 2026-05-04 13:08 | 46.31968 | 11.36948 | 34647 ft | 304 kts | 170° |
| 2026-05-04 13:08 | 46.29903 | 11.37622 | 34912 ft | 304 kts | 170° |
| 2026-05-04 13:08 | 46.27837 | 11.38297 | 35139 ft | 305 kts | 170° |
| 2026-05-04 13:08 | 46.25794 | 11.38964 | 35398 ft | 305 kts | 170° |
| 2026-05-04 13:09 | 46.23723 | 11.39638 | 35674 ft | 305 kts | 171° |
| 2026-05-04 13:09 | 46.21646 | 11.40316 | 35924 ft | 306 kts | 171° |
| 2026-05-04 13:09 | 46.19570 | 11.40990 | 36178 ft | 306 kts | 171° |
| 2026-05-04 13:09 | 46.17496 | 11.41667 | 36435 ft | 306 kts | 171° |
| 2026-05-04 13:10 | 46.15418 | 11.42340 | 36728 ft | 306 kts | 171° |
| 2026-05-04 13:10 | 46.13345 | 11.43013 | 37008 ft | 306 kts | 171° |
| 2026-05-04 13:10 | 46.11261 | 11.43689 | 37288 ft | 306 kts | 171° |
| 2026-05-04 13:10 | 46.09177 | 11.44367 | 37582 ft | 306 kts | 172° |
| 2026-05-04 13:11 | 46.07096 | 11.45039 | 37872 ft | 306 kts | 172° |
| 2026-05-04 13:11 | 46.05015 | 11.45714 | 38147 ft | 307 kts | 172° |
| 2026-05-04 13:11 | 46.02961 | 11.46376 | 38412 ft | 307 kts | 172° |
| 2026-05-04 13:11 | 46.00876 | 11.47052 | 38695 ft | 307 kts | 172° |
| 2026-05-04 13:12 | 45.98790 | 11.47725 | 38899 ft | 307 kts | 172° |
| 2026-05-04 13:12 | 45.96701 | 11.48398 | 39080 ft | 309 kts | 172° |
| 2026-05-04 13:12 | 45.94578 | 11.49080 | 39106 ft | 316 kts | 172° |
| 2026-05-04 13:13 | 45.90170 | 11.50500 | 39107 ft | 332 kts | 172° |
| 2026-05-04 13:13 | 45.85552 | 11.51983 | 39115 ft | 346 kts | 172° |
| 2026-05-04 13:14 | 45.80813 | 11.53508 | 39109 ft | 351 kts | 172° |
| 2026-05-04 13:14 | 45.76039 | 11.55037 | 39094 ft | 355 kts | 172° |
| 2026-05-04 13:15 | 45.71186 | 11.56591 | 39087 ft | 359 kts | 172° |
| 2026-05-04 13:15 | 45.66292 | 11.58153 | 39085 ft | 362 kts | 172° |
| 2026-05-04 13:16 | 45.61369 | 11.59722 | 39068 ft | 364 kts | 172° |
| 2026-05-04 13:16 | 45.56409 | 11.61299 | 39064 ft | 365 kts | 172° |
| 2026-05-04 13:17 | 45.51436 | 11.62879 | 39070 ft | 367 kts | 172° |
| 2026-05-04 13:17 | 45.46440 | 11.64461 | 39080 ft | 368 kts | 172° |
| 2026-05-04 13:18 | 45.41463 | 11.66036 | 39080 ft | 369 kts | 172° |
| 2026-05-04 13:18 | 45.36443 | 11.67622 | 39079 ft | 370 kts | 172° |
| 2026-05-04 13:19 | 45.31407 | 11.69210 | 39081 ft | 371 kts | 172° |
| 2026-05-04 13:19 | 45.26360 | 11.70798 | 39084 ft | 372 kts | 172° |
| 2026-05-04 13:20 | 45.21299 | 11.72388 | 39095 ft | 373 kts | 172° |
| 2026-05-04 13:20 | 45.16233 | 11.73975 | 39091 ft | 373 kts | 172° |
| 2026-05-04 13:21 | 45.11155 | 11.75566 | 39087 ft | 374 kts | 172° |
| 2026-05-04 13:21 | 45.06074 | 11.77151 | 39089 ft | 374 kts | 172° |
| 2026-05-04 13:22 | 45.01018 | 11.78728 | 39088 ft | 374 kts | 172° |
| 2026-05-04 13:22 | 44.95926 | 11.80313 | 39083 ft | 375 kts | 172° |
| 2026-05-04 13:23 | 44.90827 | 11.81898 | 39084 ft | 375 kts | 172° |
| 2026-05-04 13:23 | 44.85730 | 11.83479 | 39085 ft | 375 kts | 172° |
| 2026-05-04 13:24 | 44.80653 | 11.85051 | 39088 ft | 375 kts | 172° |
| 2026-05-04 13:24 | 44.75547 | 11.86627 | 39081 ft | 376 kts | 172° |
| 2026-05-04 13:25 | 44.67877 | 11.88993 | 39081 ft | 376 kts | 172° |
| 2026-05-04 13:25 | 44.62756 | 11.90568 | 39085 ft | 377 kts | 172° |
| 2026-05-04 13:26 | 44.58498 | 11.91874 | 39085 ft | 377 kts | 172° |
| 2026-05-04 13:26 | 44.53367 | 11.93448 | 39085 ft | 377 kts | 173° |
| 2026-05-04 13:27 | 44.48236 | 11.95019 | 39084 ft | 377 kts | 173° |
| 2026-05-04 13:27 | 44.43097 | 11.96589 | 39087 ft | 378 kts | 173° |
| 2026-05-04 13:28 | 44.37993 | 11.98146 | 39091 ft | 378 kts | 172° |
| 2026-05-04 13:28 | 44.32845 | 11.99712 | 39095 ft | 379 kts | 173° |
| 2026-05-04 13:29 | 44.27695 | 12.01276 | 39103 ft | 379 kts | 173° |
| 2026-05-04 13:29 | 44.22537 | 12.02840 | 39103 ft | 379 kts | 173° |
| 2026-05-04 13:30 | 44.17370 | 12.04406 | 39100 ft | 380 kts | 173° |
| 2026-05-04 13:30 | 44.12207 | 12.05966 | 39100 ft | 380 kts | 173° |
| 2026-05-04 13:31 | 44.07041 | 12.07525 | 39098 ft | 380 kts | 173° |
| 2026-05-04 13:31 | 44.01862 | 12.09084 | 39099 ft | 381 kts | 173° |
| 2026-05-04 13:32 | 43.96680 | 12.10641 | 39089 ft | 381 kts | 173° |
| 2026-05-04 13:32 | 43.91493 | 12.12198 | 39093 ft | 382 kts | 173° |
| 2026-05-04 13:33 | 43.86309 | 12.13751 | 39098 ft | 383 kts | 173° |
| 2026-05-04 13:33 | 43.81075 | 12.15312 | 38710 ft | 388 kts | 173° |
| 2026-05-04 13:34 | 43.78439 | 12.16102 | 38070 ft | 388 kts | 173° |
| 2026-05-04 13:34 | 43.75832 | 12.16884 | 37654 ft | 381 kts | 173° |
| 2026-05-04 13:34 | 43.73250 | 12.17653 | 37164 ft | 377 kts | 173° |
| 2026-05-04 13:34 | 43.70699 | 12.18409 | 36677 ft | 373 kts | 173° |
| 2026-05-04 13:35 | 43.68166 | 12.19163 | 36187 ft | 370 kts | 173° |
| 2026-05-04 13:35 | 43.63158 | 12.20596 | 35216 ft | 363 kts | 177° |
| 2026-05-04 13:35 | 43.60659 | 12.20723 | 34739 ft | 356 kts | 187° |
| 2026-05-04 13:36 | 43.58194 | 12.20565 | 34272 ft | 354 kts | 187° |
| 2026-05-04 13:36 | 43.55736 | 12.20460 | 33774 ft | 352 kts | 186° |
| 2026-05-04 13:36 | 43.53302 | 12.20351 | 33311 ft | 348 kts | 187° |
| 2026-05-04 13:36 | 43.50891 | 12.20220 | 32853 ft | 345 kts | 186° |
| 2026-05-04 13:37 | 43.48506 | 12.20097 | 32403 ft | 342 kts | 186° |
| 2026-05-04 13:37 | 43.46111 | 12.19978 | 31945 ft | 349 kts | 186° |
| 2026-05-04 13:37 | 43.43638 | 12.19853 | 31479 ft | 363 kts | 185° |
| 2026-05-04 13:37 | 43.41072 | 12.19725 | 30986 ft | 373 kts | 184° |
| 2026-05-04 13:38 | 43.38451 | 12.19597 | 30484 ft | 381 kts | 184° |
| 2026-05-04 13:38 | 43.35804 | 12.19470 | 29952 ft | 388 kts | 184° |
| 2026-05-04 13:38 | 43.33085 | 12.19333 | 29425 ft | 393 kts | 184° |
| 2026-05-04 13:38 | 43.30341 | 12.19195 | 28901 ft | 395 kts | 184° |
| 2026-05-04 13:39 | 43.27586 | 12.19060 | 28376 ft | 397 kts | 184° |
| 2026-05-04 13:39 | 43.24815 | 12.18924 | 27850 ft | 399 kts | 184° |
| 2026-05-04 13:39 | 43.22039 | 12.18787 | 27323 ft | 400 kts | 184° |
| 2026-05-04 13:39 | 43.19244 | 12.18648 | 26788 ft | 401 kts | 184° |
| 2026-05-04 13:40 | 43.16458 | 12.18512 | 26255 ft | 399 kts | 185° |
| 2026-05-04 13:40 | 43.13703 | 12.18378 | 25737 ft | 392 kts | 185° |
| 2026-05-04 13:40 | 43.11002 | 12.18244 | 25225 ft | 385 kts | 185° |
| 2026-05-04 13:40 | 43.08346 | 12.18161 | 24722 ft | 380 kts | 181° |
| 2026-05-04 13:41 | 43.05744 | 12.18628 | 24231 ft | 375 kts | 171° |
| 2026-05-04 13:41 | 43.03277 | 12.19673 | 23752 ft | 369 kts | 163° |
| 2026-05-04 13:41 | 43.00890 | 12.20878 | 23232 ft | 361 kts | 163° |
| 2026-05-04 13:42 | 42.96253 | 12.23133 | 22292 ft | 348 kts | 163° |
| 2026-05-04 13:42 | 42.93989 | 12.24251 | 21838 ft | 344 kts | 163° |
| 2026-05-04 13:42 | 42.91753 | 12.25352 | 21388 ft | 340 kts | 164° |
| 2026-05-04 13:42 | 42.89534 | 12.26438 | 20944 ft | 337 kts | 164° |
| 2026-05-04 13:43 | 42.87357 | 12.27501 | 20500 ft | 335 kts | 164° |
| 2026-05-04 13:43 | 42.85172 | 12.28568 | 20055 ft | 333 kts | 164° |
| 2026-05-04 13:43 | 42.82970 | 12.29641 | 19620 ft | 331 kts | 164° |
| 2026-05-04 13:43 | 42.80804 | 12.30697 | 19186 ft | 330 kts | 163° |
| 2026-05-04 13:44 | 42.78732 | 12.32057 | 18741 ft | 332 kts | 153° |
| 2026-05-04 13:44 | 42.76783 | 12.33674 | 18304 ft | 331 kts | 152° |
| 2026-05-04 13:44 | 42.74800 | 12.35275 | 17808 ft | 329 kts | 153° |
| 2026-05-04 13:44 | 42.72832 | 12.36827 | 17405 ft | 326 kts | 153° |
| 2026-05-04 13:45 | 42.70881 | 12.38380 | 16974 ft | 323 kts | 153° |
| 2026-05-04 13:45 | 42.68956 | 12.39921 | 16554 ft | 320 kts | 153° |
| 2026-05-04 13:45 | 42.67043 | 12.41448 | 16130 ft | 317 kts | 153° |
| 2026-05-04 13:45 | 42.65150 | 12.42952 | 15716 ft | 314 kts | 153° |
| 2026-05-04 13:46 | 42.63280 | 12.44442 | 15308 ft | 310 kts | 153° |
| 2026-05-04 13:46 | 42.61424 | 12.45918 | 14901 ft | 307 kts | 153° |
| 2026-05-04 13:46 | 42.59589 | 12.47377 | 14502 ft | 303 kts | 153° |
| 2026-05-04 13:46 | 42.57782 | 12.48810 | 14106 ft | 298 kts | 153° |
| 2026-05-04 13:47 | 42.56007 | 12.50221 | 13696 ft | 293 kts | 153° |
| 2026-05-04 13:47 | 42.54259 | 12.51608 | 13311 ft | 288 kts | 153° |
| 2026-05-04 13:47 | 42.52542 | 12.52970 | 12933 ft | 284 kts | 153° |
| 2026-05-04 13:47 | 42.50843 | 12.54312 | 12564 ft | 281 kts | 153° |
| 2026-05-04 13:48 | 42.49161 | 12.55645 | 12204 ft | 279 kts | 153° |
| 2026-05-04 13:48 | 42.47483 | 12.56972 | 11834 ft | 279 kts | 152° |
| 2026-05-04 13:48 | 42.45811 | 12.58294 | 11468 ft | 278 kts | 152° |
| 2026-05-04 13:48 | 42.44141 | 12.59613 | 11102 ft | 276 kts | 152° |
| 2026-05-04 13:49 | 42.42484 | 12.60922 | 10724 ft | 275 kts | 152° |
| 2026-05-04 13:49 | 42.40811 | 12.62047 | 10376 ft | 270 kts | 161° |
| 2026-05-04 13:49 | 42.38982 | 12.62590 | 9893 ft | 267 kts | 174° |
| 2026-05-04 13:49 | 42.37162 | 12.62578 | 9552 ft | 258 kts | 186° |
| 2026-05-04 13:50 | 42.35430 | 12.62178 | 9257 ft | 248 kts | 188° |
| 2026-05-04 13:50 | 42.33753 | 12.61831 | 8978 ft | 241 kts | 188° |
| 2026-05-04 13:50 | 42.32113 | 12.61481 | 8698 ft | 235 kts | 188° |
| 2026-05-04 13:50 | 42.30513 | 12.61126 | 8437 ft | 231 kts | 188° |
| 2026-05-04 13:51 | 42.28934 | 12.60780 | 8176 ft | 228 kts | 188° |
| 2026-05-04 13:51 | 42.27376 | 12.60442 | 7915 ft | 225 kts | 188° |
| 2026-05-04 13:51 | 42.25875 | 12.59927 | 7654 ft | 222 kts | 201° |
| 2026-05-04 13:51 | 42.24548 | 12.58878 | 7413 ft | 222 kts | 214° |
| 2026-05-04 13:52 | 42.22458 | 12.55635 | 6877 ft | 235 kts | 229° |
| 2026-05-04 13:52 | 42.21439 | 12.53896 | 6606 ft | 238 kts | 229° |
| 2026-05-04 13:52 | 42.20417 | 12.52121 | 6315 ft | 241 kts | 229° |
| 2026-05-04 13:53 | 42.19392 | 12.50327 | 6030 ft | 242 kts | 229° |
| 2026-05-04 13:53 | 42.18355 | 12.48521 | 5755 ft | 244 kts | 229° |
| 2026-05-04 13:53 | 42.17327 | 12.46735 | 5484 ft | 244 kts | 229° |
| 2026-05-04 13:54 | 42.15234 | 12.43118 | 4924 ft | 243 kts | 227° |
| 2026-05-04 13:54 | 42.13981 | 12.41627 | 4640 ft | 240 kts | 210° |
| 2026-05-04 13:54 | 42.10887 | 12.40253 | 4100 ft | 230 kts | 183° |
| 2026-05-04 13:55 | 42.09319 | 12.40375 | 3838 ft | 222 kts | 169° |
| 2026-05-04 13:55 | 42.06534 | 12.41843 | 3345 ft | 210 kts | 156° |
| 2026-05-04 13:55 | 42.05240 | 12.42649 | 3111 ft | 205 kts | 158° |
| 2026-05-04 13:56 | 42.03884 | 12.43117 | 2996 ft | 197 kts | 169° |
| 2026-05-04 13:56 | 42.02698 | 12.43680 | 2985 ft | 191 kts | 153° |
| 2026-05-04 13:56 | 42.00286 | 12.45340 | 2988 ft | 203 kts | 154° |
| 2026-05-04 13:57 | 41.99037 | 12.46233 | 2983 ft | 203 kts | 153° |
| 2026-05-04 13:57 | 41.97814 | 12.47101 | 2981 ft | 193 kts | 154° |
| 2026-05-04 13:58 | 41.94448 | 12.49415 | 2978 ft | 170 kts | 155° |
| 2026-05-04 13:58 | 41.92506 | 12.50778 | 2984 ft | 144 kts | 157° |
| 2026-05-04 13:58 | 41.91649 | 12.51355 | 2925 ft | 135 kts | 154° |
| 2026-05-04 13:59 | 41.90810 | 12.51965 | 2639 ft | 137 kts | 154° |
| 2026-05-04 13:59 | 41.89976 | 12.52548 | 2422 ft | 135 kts | 155° |
| 2026-05-04 13:59 | 41.88311 | 12.53675 | 2087 ft | 130 kts | 156° |
| 2026-05-04 14:00 | 41.87555 | 12.54216 | 1901 ft | 117 kts | 154° |
| 2026-05-04 14:00 | 41.86255 | 12.55122 | 1626 ft | 97 kts | 157° |
| 2026-05-04 14:00 | 41.85674 | 12.55517 | 1486 ft | 93 kts | 156° |
| 2026-05-04 14:01 | 41.85120 | 12.55908 | 1384 ft | 87 kts | 156° |
| 2026-05-04 14:01 | 41.84585 | 12.56274 | 1270 ft | 86 kts | 156° |
| 2026-05-04 14:01 | 41.83543 | 12.56990 | 1029 ft | 84 kts | 159° |
| 2026-05-04 14:02 | 41.83006 | 12.57362 | 915 ft | 88 kts | 158° |
| 2026-05-04 14:02 | 41.82466 | 12.57748 | 808 ft | 86 kts | 157° |
| 2026-05-04 14:02 | 41.81932 | 12.58111 | 667 ft | 86 kts | 159° |
| 2026-05-04 14:02 | 41.81401 | 12.58478 | 559 ft | 86 kts | 158° |
| 2026-05-04 14:03 | 41.80871 | 12.58841 | 417 ft | 84 kts | 159° |
| 2026-05-04 14:03 | 41.80391 | 12.59170 | 377 ft | 68 kts | 160° |
| 2026-05-04 14:03 | 41.80050 | 12.59398 | 399 ft | 39 kts | 156° |
| 2026-05-04 14:03 | 41.79908 | 12.59498 | 405 ft | 12 kts | 167° |
| 2026-05-04 14:04 | 41.79850 | 12.59405 | 403 ft | 0 kts | 245° |
| 2026-05-04 14:04 | 41.79847 | 12.59396 | 402 ft | 3 kts | 244° |
| 2026-05-04 14:04 | 41.79847 | 12.59350 | 401 ft | 7 kts | 310° |
| 2026-05-04 14:05 | 41.79993 | 12.59243 | 394 ft | 18 kts | 333° |
| 2026-05-04 14:05 | 41.80118 | 12.59155 | 388 ft | 20 kts | 332° |
| 2026-05-04 14:05 | 41.80251 | 12.59064 | 379 ft | 17 kts | 332° |
| 2026-05-04 14:06 | 41.80270 | 12.58973 | 375 ft | 14 kts | 232° |
| 2026-05-04 14:06 | 41.80230 | 12.58880 | 372 ft | 7 kts | 291° |
| 2026-05-04 14:06 | 41.80271 | 12.58838 | 370 ft | 10 kts | 322° |
| 2026-05-04 14:06 | 41.80340 | 12.58766 | 366 ft | 16 kts | 322° |
| 2026-05-04 14:07 | 41.80439 | 12.58666 | 361 ft | 12 kts | 322° |
| 2026-05-04 14:07 | 41.80450 | 12.58607 | 359 ft | 8 kts | 262° |
| 2026-05-04 14:07 | 41.80449 | 12.58599 | 358 ft | 0 kts | 262° |